Westgate, Iowa
Current Conditions -  °F | °C
As of 8:15 AM on Monday 24 Nov 2014 (Local Time) from KOLZ Reporting Station
Unknown Precip Unknown Precip  
Wind Chill:   Ceiling: 900
Heat Index: 25°   Visibility: 3mi
Dew Point: 23°   Wind: 26mph
Humidity: 93%   Direction: 300°WNW
Pressure: 29.33"   Gusts: 33mph
Location:  42.77°N, 92°W
Report Text: KOLZ 241415Z AUTO 30023G29KT 3SM -UP OVC009 M04/M05 A2933 RMK AO2
Loading
Personal Weather Stations






























Interactive Weather Map New forecast layout! Learn more

10-Day Weather Forecast

Advertisements
Track Severe Weather on mobile